createdAt,value
2018-07-04T00:01:52.876Z,3.00
2018-07-04T00:04:33.081Z,2.50
2018-07-04T00:07:13.342Z,2.60
2018-07-04T00:09:53.887Z,2.73
2018-07-04T00:12:34.328Z,2.50
2018-07-04T00:15:14.274Z,2.70
2018-07-04T00:17:55.101Z,2.27
2018-07-04T00:20:40.308Z,2.40
2018-07-04T00:23:20.714Z,2.57
2018-07-04T00:26:00.921Z,2.40
2018-07-04T00:28:40.959Z,2.70
2018-07-04T00:31:21.376Z,3.00
2018-07-04T00:34:01.717Z,2.77
2018-07-04T00:36:41.575Z,3.27
2018-07-04T00:39:22.211Z,2.80
2018-07-04T00:42:02.240Z,3.17
2018-07-04T00:44:42.292Z,2.50
2018-07-04T00:47:23.374Z,2.70
2018-07-04T00:50:04.364Z,2.30
2018-07-04T00:52:45.883Z,2.63
2018-07-04T00:55:26.243Z,2.33
2018-07-04T00:58:06.780Z,2.10
2018-07-04T01:00:47.250Z,2.93
2018-07-04T01:03:29.109Z,3.00
2018-07-04T01:06:09.230Z,2.80
2018-07-04T01:08:50.223Z,2.80
2018-07-04T01:11:30.671Z,2.30
2018-07-04T01:14:11.030Z,2.60
2018-07-04T01:16:51.257Z,2.90
2018-07-04T01:19:31.756Z,2.80
2018-07-04T01:22:11.677Z,2.70
2018-07-04T01:24:51.928Z,3.00
2018-07-04T01:27:32.360Z,2.97
2018-07-04T01:30:12.760Z,2.80
2018-07-04T01:32:53.006Z,2.83
2018-07-04T01:35:28.707Z,3.10
2018-07-04T01:38:09.426Z,2.80
2018-07-04T01:40:49.520Z,2.70
2018-07-04T01:43:29.672Z,2.73
2018-07-04T01:46:09.996Z,2.57
2018-07-04T01:48:50.565Z,3.00
2018-07-04T01:51:30.850Z,3.10
2018-07-04T01:54:10.921Z,3.10
2018-07-04T01:56:51.113Z,2.97
2018-07-04T01:59:31.421Z,2.90
2018-07-04T02:02:11.462Z,2.80
2018-07-04T02:04:52.352Z,2.93
2018-07-04T02:07:32.855Z,2.77
2018-07-04T02:10:13.144Z,2.90
2018-07-04T02:12:53.577Z,3.20
2018-07-04T02:15:33.715Z,2.93
2018-07-04T02:18:13.908Z,3.30
2018-07-04T02:20:56.005Z,3.13
2018-07-04T02:23:36.156Z,3.13
2018-07-04T02:26:17.058Z,3.00
2018-07-04T02:28:57.664Z,3.03
2018-07-04T02:31:38.056Z,2.70
2018-07-04T02:34:23.103Z,3.30
2018-07-04T02:37:03.223Z,3.53
2018-07-04T02:39:43.977Z,2.40
2018-07-04T02:42:24.297Z,2.50
2018-07-04T02:45:04.905Z,2.30
2018-07-04T02:47:45.522Z,2.57
2018-07-04T02:50:27.882Z,2.40
2018-07-04T02:53:07.956Z,3.30
2018-07-04T02:55:49.721Z,2.73
2018-07-04T02:58:30.092Z,2.10
2018-07-04T03:01:10.590Z,2.10
2018-07-04T03:03:52.358Z,2.03
2018-07-04T03:06:32.927Z,2.90
2018-07-04T03:09:06.910Z,2.53
2018-07-04T03:11:47.176Z,3.00
2018-07-04T03:14:27.574Z,3.40
2018-07-04T03:17:08.060Z,2.77
2018-07-04T03:19:48.195Z,2.63
2018-07-04T03:22:28.621Z,3.43
2018-07-04T03:25:08.818Z,3.07
2018-07-04T03:27:49.642Z,2.77
2018-07-04T03:30:29.937Z,3.23
2018-07-04T03:33:09.991Z,2.60
2018-07-04T03:35:50.225Z,2.80
2018-07-04T03:38:31.386Z,2.97
2018-07-04T03:41:11.739Z,2.37
2018-07-04T03:43:52.284Z,2.63
2018-07-04T03:46:32.443Z,2.30
2018-07-04T03:49:12.749Z,2.77
2018-07-04T03:51:52.942Z,2.73
2018-07-04T03:54:32.924Z,2.13
2018-07-04T03:57:07.115Z,2.27
2018-07-04T03:59:47.369Z,2.27
2018-07-04T04:02:27.871Z,2.43
2018-07-04T04:05:07.818Z,2.50
2018-07-04T04:07:48.233Z,2.00
2018-07-04T04:10:28.311Z,2.20
2018-07-04T04:13:08.723Z,2.20
2018-07-04T04:15:49.109Z,2.20
2018-07-04T04:18:29.411Z,2.10
2018-07-04T04:21:12.280Z,1.80
2018-07-04T04:23:54.316Z,2.03
2018-07-04T04:26:34.649Z,1.90
2018-07-04T04:29:09.242Z,1.80
2018-07-04T04:31:49.428Z,1.60
2018-07-04T04:34:30.168Z,1.80
2018-07-04T04:37:10.560Z,1.97
2018-07-04T04:39:50.693Z,1.87
2018-07-04T04:42:30.999Z,2.00
2018-07-04T04:45:11.425Z,1.80
2018-07-04T04:47:51.681Z,1.90
2018-07-04T04:50:32.126Z,2.07
2018-07-04T04:53:12.183Z,1.80
2018-07-04T04:55:52.456Z,1.60
2018-07-04T04:58:32.462Z,1.60
2018-07-04T05:01:12.701Z,1.87
2018-07-04T05:03:53.158Z,1.87
2018-07-04T05:06:33.245Z,1.87
2018-07-04T05:09:13.723Z,1.70
2018-07-04T05:11:54.366Z,2.00
2018-07-04T05:14:34.472Z,1.90
2018-07-04T05:17:15.330Z,1.83
2018-07-04T05:19:55.648Z,1.67
2018-07-04T05:22:35.614Z,1.87
2018-07-04T05:25:15.912Z,1.60
2018-07-04T05:27:56.102Z,1.80
2018-07-04T05:30:36.266Z,1.80
2018-07-04T05:33:16.699Z,1.80
2018-07-04T05:35:56.948Z,1.80
2018-07-04T05:38:37.035Z,1.77
2018-07-04T05:41:17.609Z,1.70
2018-07-04T05:43:57.739Z,1.60
2018-07-04T05:46:37.778Z,1.93
2018-07-04T05:49:18.018Z,1.80
2018-07-04T05:51:58.172Z,2.20
2018-07-04T05:54:38.057Z,2.23
2018-07-04T05:57:18.474Z,2.07
2018-07-04T05:59:58.762Z,2.07
2018-07-04T06:02:39.050Z,2.20
2018-07-04T06:05:19.283Z,2.07
2018-07-04T06:07:59.761Z,2.30
2018-07-04T06:10:39.609Z,2.13
2018-07-04T06:13:19.989Z,1.93
2018-07-04T06:16:00.219Z,2.00
2018-07-04T06:18:40.084Z,2.13
2018-07-04T06:21:21.172Z,2.60
2018-07-04T06:24:01.351Z,3.23
2018-07-04T06:26:42.103Z,2.60
2018-07-04T06:29:22.275Z,2.80
2018-07-04T06:32:02.607Z,2.90
2018-07-04T06:34:42.697Z,3.10
2018-07-04T06:37:23.427Z,2.80
2018-07-04T06:39:51.467Z,3.30
2018-07-04T06:42:19.370Z,2.80
2018-07-04T06:44:47.134Z,2.50
2018-07-04T06:47:15.001Z,2.93
2018-07-04T06:49:43.065Z,3.13
2018-07-04T06:52:10.808Z,3.10
2018-07-04T06:54:38.736Z,3.10
2018-07-04T06:57:06.479Z,2.90
2018-07-04T06:59:34.720Z,2.97
2018-07-04T07:02:11.765Z,3.03
2018-07-04T07:04:53.086Z,3.37
2018-07-04T07:07:33.175Z,3.27
2018-07-04T07:10:13.200Z,3.27
2018-07-04T07:12:57.090Z,3.43
2018-07-04T07:15:36.865Z,4.10
2018-07-04T07:18:16.955Z,3.63
2018-07-04T07:20:57.032Z,3.83
2018-07-04T07:23:37.272Z,3.80
2018-07-04T07:26:17.815Z,4.03
2018-07-04T07:28:58.029Z,4.30
2018-07-04T07:31:37.972Z,4.17
2018-07-04T07:34:18.431Z,4.20
2018-07-04T07:36:58.782Z,4.07
2018-07-04T07:39:38.819Z,3.83
2018-07-04T07:42:19.204Z,4.10
2018-07-04T07:44:59.572Z,4.20
2018-07-04T07:47:39.693Z,3.87
2018-07-04T07:50:19.918Z,3.93
2018-07-04T07:53:00.564Z,4.23
2018-07-04T07:55:40.534Z,4.27
2018-07-04T07:58:21.125Z,3.50
2018-07-04T08:01:01.409Z,3.73
2018-07-04T08:03:41.394Z,3.80
2018-07-04T08:06:21.803Z,3.60
2018-07-04T08:09:01.825Z,3.60
2018-07-04T08:11:41.942Z,3.37
2018-07-04T08:14:22.080Z,3.73
2018-07-04T08:17:02.353Z,4.50
2018-07-04T08:19:36.224Z,3.97
2018-07-04T08:22:16.524Z,4.00
2018-07-04T08:24:57.641Z,3.90
2018-07-04T08:27:37.960Z,3.90
2018-07-04T08:30:17.990Z,4.00
2018-07-04T08:32:58.105Z,4.37
2018-07-04T08:35:38.458Z,4.30
2018-07-04T08:38:18.552Z,4.03
2018-07-04T08:40:59.072Z,4.50
2018-07-04T08:43:39.076Z,4.93
2018-07-04T08:46:19.334Z,5.90
2018-07-04T08:48:59.958Z,5.37
2018-07-04T08:51:40.119Z,5.20
2018-07-04T08:54:20.513Z,5.73
2018-07-04T08:57:00.690Z,5.50
2018-07-04T08:59:40.927Z,5.30
2018-07-04T09:02:21.087Z,5.23
2018-07-04T09:05:01.311Z,5.57
2018-07-04T09:07:41.699Z,4.87
2018-07-04T09:10:24.460Z,5.03
2018-07-04T09:13:04.602Z,4.97
2018-07-04T09:15:44.497Z,4.33
2018-07-04T09:18:24.811Z,4.70
2018-07-04T09:21:04.850Z,4.50
2018-07-04T09:23:45.100Z,4.50
2018-07-04T09:26:26.828Z,4.00
2018-07-04T09:29:07.007Z,4.10
2018-07-04T09:31:47.987Z,4.20
2018-07-04T09:34:28.015Z,3.90
2018-07-04T09:37:08.726Z,3.90
2018-07-04T09:39:49.102Z,3.67
2018-07-04T09:42:23.712Z,3.00
2018-07-04T09:45:03.804Z,2.60
2018-07-04T09:47:44.382Z,2.77
2018-07-04T09:50:25.160Z,1.80
2018-07-04T09:53:05.194Z,1.97
2018-07-04T09:55:45.137Z,3.00
2018-07-04T09:58:25.955Z,2.13
2018-07-04T10:01:11.249Z,2.10
2018-07-04T10:03:51.354Z,2.10
2018-07-04T10:06:31.405Z,2.13
2018-07-04T10:09:11.463Z,1.80
2018-07-04T10:11:51.567Z,1.80
2018-07-04T10:14:31.570Z,2.00
2018-07-04T10:17:11.857Z,1.90
2018-07-04T10:19:52.114Z,1.40
2018-07-04T10:22:32.511Z,1.60
2018-07-04T10:25:13.233Z,1.40
2018-07-04T10:27:53.751Z,1.60
2018-07-04T10:30:33.599Z,1.57
2018-07-04T10:33:13.647Z,1.50
2018-07-04T10:35:53.848Z,1.53
2018-07-04T10:38:33.904Z,1.50
2018-07-04T10:41:13.827Z,2.00
2018-07-04T10:43:54.401Z,1.50
2018-07-04T10:46:34.535Z,1.60
2018-07-04T10:49:15.421Z,1.27
2018-07-04T10:51:55.675Z,1.40
2018-07-04T10:54:35.887Z,1.30
2018-07-04T10:57:16.090Z,1.50
2018-07-04T10:59:56.548Z,1.47
2018-07-04T11:02:36.611Z,1.57
2018-07-04T11:05:17.751Z,1.70
2018-07-04T11:07:57.928Z,1.50
2018-07-04T11:10:38.278Z,1.70
2018-07-04T11:13:19.228Z,1.47
2018-07-04T11:15:59.636Z,1.30
2018-07-04T11:18:39.798Z,1.53
2018-07-04T11:21:20.053Z,1.60
2018-07-04T11:24:00.206Z,1.20
2018-07-04T11:26:40.224Z,1.30
2018-07-04T11:29:20.403Z,1.57
2018-07-04T11:32:00.636Z,1.47
2018-07-04T11:34:40.528Z,1.50
2018-07-04T11:37:20.868Z,1.40
2018-07-04T11:40:01.489Z,1.50
2018-07-04T11:42:41.447Z,1.50
2018-07-04T11:45:21.726Z,1.40
2018-07-04T11:47:49.736Z,1.50
2018-07-04T11:50:17.558Z,1.50
2018-07-04T11:52:45.575Z,1.40
2018-07-04T11:55:13.802Z,1.30
2018-07-04T11:57:41.800Z,1.50
2018-07-04T12:00:09.754Z,1.27
2018-07-04T12:02:37.596Z,1.30
2018-07-04T12:05:18.118Z,1.20
2018-07-04T12:07:46.272Z,1.20
2018-07-04T12:10:14.246Z,1.40
2018-07-04T12:12:42.566Z,1.20
2018-07-04T12:15:10.588Z,1.50
2018-07-04T12:17:38.502Z,1.37
2018-07-04T12:20:06.289Z,1.50
2018-07-04T12:22:34.031Z,1.40
2018-07-04T12:25:02.032Z,1.20
2018-07-04T12:27:30.008Z,1.40
2018-07-04T12:29:58.451Z,1.40
2018-07-04T12:32:26.570Z,1.37
2018-07-04T12:34:54.455Z,1.30
2018-07-04T12:37:22.254Z,1.27
2018-07-04T12:39:50.177Z,1.30
2018-07-04T12:42:18.081Z,1.62
2018-07-04T12:44:46.327Z,1.35
2018-07-04T12:47:14.448Z,1.20
2018-07-04T12:49:42.522Z,2.67
2018-07-04T12:52:10.339Z,1.40
2018-07-04T12:54:43.339Z,1.70
2018-07-04T12:57:23.820Z,1.30
2018-07-04T13:00:04.553Z,1.30
2018-07-04T13:02:44.510Z,1.40
2018-07-04T13:05:24.828Z,1.50
2018-07-04T13:08:05.070Z,1.40
2018-07-04T13:10:44.556Z,1.33
2018-07-04T13:13:24.767Z,1.20
2018-07-04T13:16:04.892Z,1.37
2018-07-04T13:18:45.136Z,1.53
2018-07-04T13:21:25.452Z,1.20
2018-07-04T13:24:05.355Z,1.50
2018-07-04T13:26:45.690Z,1.30
2018-07-04T13:29:26.574Z,1.43
2018-07-04T13:32:06.605Z,1.30
2018-07-04T13:34:47.279Z,1.50
2018-07-04T13:37:27.618Z,1.50
2018-07-04T13:40:08.155Z,1.22
2018-07-04T13:42:48.435Z,1.40
2018-07-04T13:45:22.634Z,1.40
2018-07-04T13:48:03.149Z,1.20
2018-07-04T13:50:43.508Z,1.30
2018-07-04T13:53:23.741Z,1.70
2018-07-04T13:56:03.895Z,1.77
2018-07-04T13:58:44.253Z,1.37
2018-07-04T14:01:24.745Z,1.27
2018-07-04T14:04:05.006Z,1.60
2018-07-04T14:06:45.049Z,1.37
2018-07-04T14:09:25.793Z,1.37
2018-07-04T14:12:05.674Z,1.40
2018-07-04T14:14:46.247Z,1.20
2018-07-04T14:17:26.616Z,1.37
2018-07-04T14:20:07.037Z,1.53
2018-07-04T14:22:47.223Z,2.50
2018-07-04T14:25:27.534Z,1.30
2018-07-04T14:28:07.599Z,1.50
2018-07-04T14:30:48.019Z,1.37
2018-07-04T14:33:28.345Z,1.50
2018-07-04T14:36:08.629Z,2.07
2018-07-04T14:38:48.835Z,2.57
2018-07-04T14:41:28.506Z,1.40
2018-07-04T14:44:08.869Z,1.47
2018-07-04T14:46:49.141Z,1.40
2018-07-04T14:49:29.489Z,1.90
2018-07-04T14:52:09.907Z,2.60
2018-07-04T14:54:50.466Z,2.13
2018-07-04T14:57:31.084Z,2.60
2018-07-04T15:00:11.348Z,2.03
2018-07-04T15:02:51.435Z,2.47
2018-07-04T15:05:31.443Z,2.40
2018-07-04T15:08:11.669Z,3.80
2018-07-04T15:10:51.814Z,2.80
2018-07-04T15:13:32.120Z,2.30
2018-07-04T15:16:12.173Z,2.60
2018-07-04T15:18:52.520Z,2.90
2018-07-04T15:21:32.714Z,2.80
2018-07-04T15:24:12.916Z,2.90
2018-07-04T15:26:53.141Z,2.47
2018-07-04T15:29:33.081Z,2.77
2018-07-04T15:32:13.149Z,2.50
2018-07-04T15:34:53.548Z,2.90
2018-07-04T15:37:33.775Z,2.90
2018-07-04T15:40:14.090Z,2.80
2018-07-04T15:42:54.704Z,2.80
2018-07-04T15:45:34.883Z,2.37
2018-07-04T15:48:15.291Z,2.73
2018-07-04T15:50:55.642Z,2.57
2018-07-04T15:53:36.063Z,2.80
2018-07-04T15:56:16.081Z,2.53
2018-07-04T15:58:56.343Z,2.67
2018-07-04T16:01:36.769Z,3.00
2018-07-04T16:04:16.984Z,3.00
2018-07-04T16:06:57.334Z,2.57
2018-07-04T16:09:37.646Z,2.50
2018-07-04T16:12:17.808Z,2.60
2018-07-04T16:14:58.020Z,2.77
2018-07-04T16:17:38.169Z,2.87
2018-07-04T16:20:18.417Z,2.80
2018-07-04T16:22:58.727Z,3.00
2018-07-04T16:25:39.041Z,2.87
2018-07-04T16:28:19.183Z,3.00
2018-07-04T16:30:59.404Z,2.90
2018-07-04T16:33:42.707Z,2.83
2018-07-04T16:36:22.849Z,3.03
2018-07-04T16:39:03.211Z,3.07
2018-07-04T16:41:43.562Z,2.83
2018-07-04T16:44:25.529Z,3.00
2018-07-04T16:47:05.970Z,3.27
2018-07-04T16:49:46.284Z,3.03
2018-07-04T16:52:26.685Z,3.40
2018-07-04T16:55:06.744Z,3.20
2018-07-04T16:57:46.528Z,3.00
2018-07-04T17:00:26.719Z,3.33
2018-07-04T17:03:06.682Z,2.70
2018-07-04T17:05:47.051Z,3.00
2018-07-04T17:08:27.382Z,3.13
2018-07-04T17:11:07.644Z,2.70
2018-07-04T17:13:47.828Z,2.87
2018-07-04T17:16:28.119Z,2.57
2018-07-04T17:19:08.392Z,2.70
2018-07-04T17:21:49.123Z,2.67
2018-07-04T17:24:29.312Z,2.50
2018-07-04T17:27:09.603Z,2.70
2018-07-04T17:29:50.845Z,2.77
2018-07-04T17:32:31.315Z,2.67
2018-07-04T17:35:11.967Z,2.50
2018-07-04T17:37:46.737Z,2.70
2018-07-04T17:40:27.140Z,2.30
2018-07-04T17:43:07.966Z,2.50
2018-07-04T17:45:48.318Z,2.17
2018-07-04T17:48:28.735Z,2.63
2018-07-04T17:51:09.518Z,2.80
2018-07-04T17:53:50.745Z,2.60
2018-07-04T17:56:31.300Z,2.70
2018-07-04T17:59:11.304Z,3.07
2018-07-04T18:01:52.381Z,2.67
2018-07-04T18:04:32.603Z,2.53
2018-07-04T18:07:12.518Z,2.87
2018-07-04T18:09:52.956Z,2.60
2018-07-04T18:12:33.191Z,2.70
2018-07-04T18:15:13.411Z,2.37
2018-07-04T18:17:54.275Z,2.70
2018-07-04T18:20:34.487Z,2.90
2018-07-04T18:23:15.241Z,3.10
2018-07-04T18:25:55.570Z,3.00
2018-07-04T18:28:35.912Z,3.00
2018-07-04T18:31:15.930Z,3.00
2018-07-04T18:33:56.336Z,2.80
2018-07-04T18:36:36.645Z,2.73
2018-07-04T18:39:17.066Z,2.60
2018-07-04T18:41:51.947Z,3.20
2018-07-04T18:44:32.034Z,2.90
2018-07-04T18:47:12.386Z,3.13
2018-07-04T18:49:52.559Z,2.53
2018-07-04T18:52:32.567Z,2.87
2018-07-04T18:55:12.493Z,2.70
2018-07-04T18:57:52.956Z,3.50
2018-07-04T19:00:33.085Z,3.30
2018-07-04T19:03:13.126Z,3.20
2018-07-04T19:05:53.541Z,2.87
2018-07-04T19:08:33.418Z,3.17
2018-07-04T19:11:13.628Z,3.00
2018-07-04T19:13:53.883Z,3.27
2018-07-04T19:16:33.933Z,3.57
2018-07-04T19:19:14.312Z,3.60
2018-07-04T19:21:54.876Z,3.10
2018-07-04T19:24:34.860Z,3.50
2018-07-04T19:27:15.028Z,2.90
2018-07-04T19:29:55.307Z,3.33
2018-07-04T19:32:35.447Z,3.90
2018-07-04T19:35:15.643Z,3.70
2018-07-04T19:37:56.252Z,3.30
2018-07-04T19:40:36.263Z,3.40
2018-07-04T19:43:16.439Z,3.13
2018-07-04T19:45:56.872Z,3.67
2018-07-04T19:48:36.771Z,3.80
2018-07-04T19:51:17.098Z,3.67
2018-07-04T19:53:57.231Z,4.33
2018-07-04T19:56:37.253Z,3.97
2018-07-04T19:59:17.613Z,3.90
2018-07-04T20:01:57.848Z,4.00
2018-07-04T20:04:38.043Z,4.13
2018-07-04T20:07:18.362Z,4.90
2018-07-04T20:09:58.732Z,4.30
2018-07-04T20:12:39.425Z,4.50
2018-07-04T20:15:19.921Z,4.13
2018-07-04T20:18:00.648Z,4.40
2018-07-04T20:20:40.588Z,4.43
2018-07-04T20:23:21.689Z,4.67
2018-07-04T20:26:02.057Z,4.67
2018-07-04T20:28:41.981Z,4.47
2018-07-04T20:31:22.195Z,4.67
2018-07-04T20:34:02.308Z,4.80
2018-07-04T20:36:42.376Z,4.80
2018-07-04T20:39:22.642Z,4.40
2018-07-04T20:42:02.868Z,5.03
2018-07-04T20:44:42.795Z,5.07
2018-07-04T20:47:23.714Z,4.63
2018-07-04T20:50:03.771Z,5.00
2018-07-04T20:52:44.148Z,5.07
2018-07-04T20:55:24.642Z,5.07
2018-07-04T20:58:04.970Z,5.10
2018-07-04T21:00:44.948Z,5.13
2018-07-04T21:03:25.625Z,5.47
2018-07-04T21:06:05.722Z,5.73
2018-07-04T21:08:45.693Z,6.70
2018-07-04T21:11:26.099Z,6.20
2018-07-04T21:14:06.108Z,6.67
2018-07-04T21:16:46.289Z,6.00
2018-07-04T21:19:27.692Z,6.47
2018-07-04T21:22:07.806Z,5.80
2018-07-04T21:24:48.147Z,6.33
2018-07-04T21:27:28.521Z,6.30
2018-07-04T21:30:10.117Z,6.33
2018-07-04T21:32:50.705Z,6.60
2018-07-04T21:35:31.767Z,6.63
2018-07-04T21:38:11.859Z,7.03
2018-07-04T21:40:52.092Z,6.57
2018-07-04T21:43:32.310Z,7.67
2018-07-04T21:46:12.248Z,7.13
2018-07-04T21:48:52.494Z,6.73
2018-07-04T21:51:32.717Z,7.87
2018-07-04T21:54:13.226Z,6.50
2018-07-04T21:56:53.718Z,7.03
2018-07-04T21:59:33.837Z,7.20
2018-07-04T22:02:13.852Z,7.17
2018-07-04T22:04:53.888Z,8.27
2018-07-04T22:07:33.880Z,6.77
2018-07-04T22:10:13.826Z,8.13
2018-07-04T22:12:54.590Z,8.17
2018-07-04T22:15:34.746Z,8.10
2018-07-04T22:18:15.305Z,8.33
2018-07-04T22:20:55.658Z,8.83
2018-07-04T22:23:35.546Z,8.20
2018-07-04T22:26:15.450Z,8.57
2018-07-04T22:28:55.819Z,8.33
2018-07-04T22:31:35.791Z,8.77
2018-07-04T22:34:16.037Z,7.53
2018-07-04T22:36:56.392Z,7.50
2018-07-04T22:39:36.403Z,8.13
2018-07-04T22:42:16.989Z,8.20
2018-07-04T22:44:57.136Z,9.00
2018-07-04T22:47:37.465Z,9.20
2018-07-04T22:50:17.703Z,9.03
2018-07-04T22:52:58.234Z,9.30
2018-07-04T22:55:38.253Z,9.50
2018-07-04T22:58:18.885Z,8.70
2018-07-04T23:00:59.070Z,9.87
2018-07-04T23:03:39.264Z,9.13
2018-07-04T23:06:19.596Z,9.40
2018-07-04T23:08:59.696Z,7.40
2018-07-04T23:11:39.691Z,8.70
2018-07-04T23:14:19.743Z,8.97
2018-07-04T23:17:00.009Z,9.23
2018-07-04T23:19:39.956Z,8.70
2018-07-04T23:22:20.392Z,8.97
2018-07-04T23:25:00.699Z,10.10
2018-07-04T23:27:40.950Z,10.90
2018-07-04T23:30:21.058Z,10.40
2018-07-04T23:33:02.455Z,10.30
2018-07-04T23:35:36.865Z,9.53
2018-07-04T23:38:17.068Z,9.80
2018-07-04T23:40:57.339Z,10.07
2018-07-04T23:43:37.532Z,10.27
2018-07-04T23:46:18.007Z,10.97
2018-07-04T23:48:58.339Z,10.53
2018-07-04T23:51:38.575Z,11.10
2018-07-04T23:54:18.687Z,10.73
2018-07-04T23:56:59.826Z,10.70
2018-07-04T23:59:39.841Z,11.10
